Anita, Iowa
Current Conditions -  °F | °C
As of 12:15 PM on Thursday 23 Oct 2014 (Local Time) from KAIO Reporting Station
Broken Clouds Broken Clouds  
Wind Chill: 64°   Ceiling: 1700
Heat Index: 64°   Visibility: 10mi
Dew Point: 57°   Wind: 9mph
Humidity: 77%   Direction: 300°WNW
Pressure: 30.06"   Gusts: NA
Location:  41.45°N, 94.76°W
Report Text: KAIO 231715Z AUTO 30008KT 10SM BKN017 18/14 A3006 RMK AO2
Loading
Personal Weather Stations






























Interactive Weather Map
Tropical Storm Tracking
New forecast layout! Learn more

10-Day Weather Forecast

Advertisements
Track Severe Weather on mobile